Terminal Aerodrome Forecast
Issued by NWS Birmingham, AL

Home | Current Version | Previous Version | Text Only | Print | Product List | Glossary On
Versions: 1 2 3 4 5 6 7 8 9 10 11 12 13 14 15
865
FTUS44 KBMX 281950 AAA
TAFBHM
TAF AMD
KBHM 281950Z 2820/2918 09012KT P6SM VCSH SCT050 SCT250
     FM290100 07004KT P6SM SCT250=

USA.gov is the U.S. government's official web portal to all federal, state and local government web resources and services.